sensor_id;sensor_type;location;lat;lon;timestamp;pressure;altitude;pressure_sealevel;temperature;humidity
59443;BME280;45247;47.466;19.004;2023-04-07T00:01:47;99682.00;;;1.87;100.00
59443;BME280;45247;47.466;19.004;2023-04-07T00:04:15;99682.06;;;1.85;100.00
59443;BME280;45247;47.466;19.004;2023-04-07T00:06:43;99672.44;;;1.87;100.00
59443;BME280;45247;47.466;19.004;2023-04-07T00:09:12;99676.66;;;1.91;100.00
59443;BME280;45247;47.466;19.004;2023-04-07T00:11:40;99674.06;;;1.91;100.00
59443;BME280;45247;47.466;19.004;2023-04-07T00:14:08;99674.03;;;1.93;100.00
59443;BME280;45247;47.466;19.004;2023-04-07T00:16:37;99677.31;;;1.99;100.00
59443;BME280;45247;47.466;19.004;2023-04-07T00:19:05;99679.91;;;1.99;100.00
59443;BME280;45247;47.466;19.004;2023-04-07T00:21:33;99679.00;;;2.00;100.00
59443;BME280;45247;47.466;19.004;2023-04-07T00:24:01;99666.13;;;1.96;100.00
59443;BME280;45247;47.466;19.004;2023-04-07T00:26:29;99669.56;;;1.98;100.00
59443;BME280;45247;47.466;19.004;2023-04-07T00:28:58;99665.59;;;1.85;100.00
59443;BME280;45247;47.466;19.004;2023-04-07T00:31:26;99667.34;;;1.84;100.00
59443;BME280;45247;47.466;19.004;2023-04-07T00:33:56;99664.50;;;1.92;100.00
59443;BME280;45247;47.466;19.004;2023-04-07T00:36:24;99655.97;;;1.87;100.00
59443;BME280;45247;47.466;19.004;2023-04-07T00:38:52;99660.41;;;1.83;100.00
59443;BME280;45247;47.466;19.004;2023-04-07T00:41:21;99656.94;;;1.84;100.00
59443;BME280;45247;47.466;19.004;2023-04-07T00:43:49;99663.84;;;1.85;100.00
59443;BME280;45247;47.466;19.004;2023-04-07T00:46:20;99659.41;;;1.89;100.00
59443;BME280;45247;47.466;19.004;2023-04-07T00:48:49;99655.78;;;1.94;100.00
59443;BME280;45247;47.466;19.004;2023-04-07T00:51:19;99660.06;;;1.95;100.00
59443;BME280;45247;47.466;19.004;2023-04-07T00:53:48;99660.84;;;1.99;100.00
59443;BME280;45247;47.466;19.004;2023-04-07T00:56:16;99664.34;;;1.98;100.00
59443;BME280;45247;47.466;19.004;2023-04-07T00:58:44;99660.00;;;1.98;100.00
59443;BME280;45247;47.466;19.004;2023-04-07T01:01:17;99643.53;;;1.98;100.00
59443;BME280;45247;47.466;19.004;2023-04-07T01:04:00;99651.16;;;2.04;100.00
59443;BME280;45247;47.466;19.004;2023-04-07T01:06:35;99651.50;;;1.92;100.00
59443;BME280;45247;47.466;19.004;2023-04-07T01:09:10;99641.22;;;1.87;100.00
59443;BME280;45247;47.466;19.004;2023-04-07T01:11:47;99642.13;;;1.86;100.00
59443;BME280;45247;47.466;19.004;2023-04-07T01:14:20;99641.31;;;1.84;100.00
59443;BME280;45247;47.466;19.004;2023-04-07T01:16:49;99644.66;;;1.89;100.00
59443;BME280;45247;47.466;19.004;2023-04-07T01:19:32;99640.22;;;1.91;100.00
59443;BME280;45247;47.466;19.004;2023-04-07T01:22:05;99633.59;;;1.81;100.00
59443;BME280;45247;47.466;19.004;2023-04-07T01:24:45;99636.13;;;1.84;100.00
59443;BME280;45247;47.466;19.004;2023-04-07T01:27:20;99632.69;;;1.82;100.00
59443;BME280;45247;47.466;19.004;2023-04-07T01:29:53;99637.81;;;1.85;100.00
59443;BME280;45247;47.466;19.004;2023-04-07T01:32:25;99634.31;;;1.86;100.00
59443;BME280;45247;47.466;19.004;2023-04-07T01:34:54;99630.81;;;1.87;100.00
59443;BME280;45247;47.466;19.004;2023-04-07T01:37:25;99628.97;;;1.91;100.00
59443;BME280;45247;47.466;19.004;2023-04-07T01:39:54;99629.81;;;1.91;100.00
59443;BME280;45247;47.466;19.004;2023-04-07T01:42:24;99627.41;;;1.85;100.00
59443;BME280;45247;47.466;19.004;2023-04-07T01:44:55;99634.22;;;1.89;100.00
59443;BME280;45247;47.466;19.004;2023-04-07T01:47:25;99621.13;;;1.92;100.00
59443;BME280;45247;47.466;19.004;2023-04-07T01:49:57;99628.91;;;1.92;100.00
59443;BME280;45247;47.466;19.004;2023-04-07T01:52:26;99632.28;;;1.96;100.00
59443;BME280;45247;47.466;19.004;2023-04-07T01:54:55;99624.41;;;1.99;100.00
59443;BME280;45247;47.466;19.004;2023-04-07T01:57:23;99626.09;;;2.02;100.00
59443;BME280;45247;47.466;19.004;2023-04-07T01:59:52;99628.56;;;2.05;100.00
59443;BME280;45247;47.466;19.004;2023-04-07T02:02:21;99627.66;;;2.07;100.00
59443;BME280;45247;47.466;19.004;2023-04-07T02:04:53;99632.00;;;2.07;100.00
59443;BME280;45247;47.466;19.004;2023-04-07T02:07:27;99621.38;;;2.13;100.00
59443;BME280;45247;47.466;19.004;2023-04-07T02:09:59;99630.97;;;2.12;100.00
59443;BME280;45247;47.466;19.004;2023-04-07T02:12:30;99629.25;;;2.11;100.00
59443;BME280;45247;47.466;19.004;2023-04-07T02:14:59;99628.41;;;2.11;100.00
59443;BME280;45247;47.466;19.004;2023-04-07T02:17:32;99626.94;;;2.00;100.00
59443;BME280;45247;47.466;19.004;2023-04-07T02:20:02;99620.31;;;1.90;100.00
59443;BME280;45247;47.466;19.004;2023-04-07T02:22:33;99621.34;;;1.85;100.00
59443;BME280;45247;47.466;19.004;2023-04-07T02:25:02;99620.41;;;1.87;100.00
59443;BME280;45247;47.466;19.004;2023-04-07T02:27:30;99627.31;;;1.88;100.00
59443;BME280;45247;47.466;19.004;2023-04-07T02:29:58;99624.88;;;1.82;100.00
59443;BME280;45247;47.466;19.004;2023-04-07T02:32:26;99623.13;;;1.83;100.00
59443;BME280;45247;47.466;19.004;2023-04-07T02:34:56;99625.72;;;1.84;100.00
59443;BME280;45247;47.466;19.004;2023-04-07T02:37:24;99628.41;;;1.80;100.00
59443;BME280;45247;47.466;19.004;2023-04-07T02:39:52;99620.72;;;1.77;100.00
59443;BME280;45247;47.466;19.004;2023-04-07T02:42:20;99625.81;;;1.80;100.00
59443;BME280;45247;47.466;19.004;2023-04-07T02:44:48;99622.47;;;1.76;100.00
59443;BME280;45247;47.466;19.004;2023-04-07T02:47:16;99623.31;;;1.77;100.00
59443;BME280;45247;47.466;19.004;2023-04-07T02:49:45;99620.97;;;1.67;100.00
59443;BME280;45247;47.466;19.004;2023-04-07T02:52:14;99623.44;;;1.72;100.00
59443;BME280;45247;47.466;19.004;2023-04-07T02:54:42;99619.03;;;1.74;100.00
59443;BME280;45247;47.466;19.004;2023-04-07T02:57:10;99620.03;;;1.70;100.00
59443;BME280;45247;47.466;19.004;2023-04-07T02:59:39;99616.56;;;1.69;100.00
59443;BME280;45247;47.466;19.004;2023-04-07T03:02:07;99620.78;;;1.73;100.00
59443;BME280;45247;47.466;19.004;2023-04-07T03:04:36;99618.00;;;1.80;100.00
59443;BME280;45247;47.466;19.004;2023-04-07T03:07:04;99619.63;;;1.84;100.00
59443;BME280;45247;47.466;19.004;2023-04-07T03:09:33;99617.91;;;1.84;100.00
59443;BME280;45247;47.466;19.004;2023-04-07T03:12:02;99623.00;;;1.87;100.00
59443;BME280;45247;47.466;19.004;2023-04-07T03:14:30;99616.03;;;1.89;100.00
59443;BME280;45247;47.466;19.004;2023-04-07T03:16:58;99619.59;;;1.85;100.00
59443;BME280;45247;47.466;19.004;2023-04-07T03:19:26;99623.81;;;1.89;100.00
59443;BME280;45247;47.466;19.004;2023-04-07T03:21:54;99626.44;;;1.89;100.00
59443;BME280;45247;47.466;19.004;2023-04-07T03:24:22;99624.53;;;1.94;100.00
59443;BME280;45247;47.466;19.004;2023-04-07T03:26:52;99621.94;;;1.94;100.00
59443;BME280;45247;47.466;19.004;2023-04-07T03:29:20;99622.09;;;1.88;100.00
59443;BME280;45247;47.466;19.004;2023-04-07T03:31:48;99616.88;;;1.88;100.00
59443;BME280;45247;47.466;19.004;2023-04-07T03:34:16;99616.88;;;1.88;100.00
59443;BME280;45247;47.466;19.004;2023-04-07T03:36:45;99604.50;;;1.96;100.00
59443;BME280;45247;47.466;19.004;2023-04-07T03:39:13;99611.59;;;1.91;100.00
59443;BME280;45247;47.466;19.004;2023-04-07T03:41:41;99614.91;;;1.96;100.00
59443;BME280;45247;47.466;19.004;2023-04-07T03:44:11;99617.53;;;1.96;100.00
59443;BME280;45247;47.466;19.004;2023-04-07T03:46:38;99617.50;;;1.98;100.00
59443;BME280;45247;47.466;19.004;2023-04-07T03:49:07;99614.84;;;1.99;100.00
59443;BME280;45247;47.466;19.004;2023-04-07T03:51:35;99620.13;;;1.96;100.00
59443;BME280;45247;47.466;19.004;2023-04-07T03:54:03;99616.03;;;1.89;100.00
59443;BME280;45247;47.466;19.004;2023-04-07T03:56:31;99617.91;;;1.84;100.00
59443;BME280;45247;47.466;19.004;2023-04-07T03:59:00;99613.63;;;1.82;100.00
59443;BME280;45247;47.466;19.004;2023-04-07T04:01:29;99621.59;;;1.75;100.00
59443;BME280;45247;47.466;19.004;2023-04-07T04:04:01;99625.88;;;1.78;100.00
59443;BME280;45247;47.466;19.004;2023-04-07T04:06:30;99630.91;;;1.84;100.00
59443;BME280;45247;47.466;19.004;2023-04-07T04:08:58;99631.72;;;1.86;100.00
59443;BME280;45247;47.466;19.004;2023-04-07T04:11:26;99629.09;;;1.86;100.00
59443;BME280;45247;47.466;19.004;2023-04-07T04:13:55;99633.25;;;1.93;100.00
59443;BME280;45247;47.466;19.004;2023-04-07T04:16:23;99635.03;;;1.91;100.00
59443;BME280;45247;47.466;19.004;2023-04-07T04:18:53;99634.88;;;1.97;100.00
59443;BME280;45247;47.466;19.004;2023-04-07T04:21:21;99642.56;;;2.00;100.00
59443;BME280;45247;47.466;19.004;2023-04-07T04:23:49;99639.09;;;2.02;100.00
59443;BME280;45247;47.466;19.004;2023-04-07T04:26:17;99639.84;;;2.05;100.00
59443;BME280;45247;47.466;19.004;2023-04-07T04:28:46;99646.84;;;2.03;100.00
59443;BME280;45247;47.466;19.004;2023-04-07T04:31:14;99648.59;;;2.03;100.00
59443;BME280;45247;47.466;19.004;2023-04-07T04:33:42;99644.31;;;2.02;100.00
59443;BME280;45247;47.466;19.004;2023-04-07T04:36:12;99646.72;;;2.08;100.00
59443;BME280;45247;47.466;19.004;2023-04-07T04:38:40;99649.25;;;2.11;100.00
59443;BME280;45247;47.466;19.004;2023-04-07T04:41:08;99648.19;;;2.16;100.00
59443;BME280;45247;47.466;19.004;2023-04-07T04:43:36;99648.19;;;2.16;100.00
59443;BME280;45247;47.466;19.004;2023-04-07T04:46:05;99648.19;;;2.16;100.00
59443;BME280;45247;47.466;19.004;2023-04-07T04:48:33;99648.34;;;2.12;100.00
59443;BME280;45247;47.466;19.004;2023-04-07T04:51:01;99658.81;;;2.10;100.00
59443;BME280;45247;47.466;19.004;2023-04-07T04:53:30;99651.88;;;2.09;100.00
59443;BME280;45247;47.466;19.004;2023-04-07T04:55:58;99652.47;;;2.19;100.00
59443;BME280;45247;47.466;19.004;2023-04-07T04:58:27;99659.19;;;2.26;100.00
59443;BME280;45247;47.466;19.004;2023-04-07T05:00:55;99661.56;;;2.34;100.00
59443;BME280;45247;47.466;19.004;2023-04-07T05:03:27;99664.94;;;2.37;100.00
59443;BME280;45247;47.466;19.004;2023-04-07T05:05:59;99660.53;;;2.39;100.00
59443;BME280;45247;47.466;19.004;2023-04-07T05:08:27;99648.50;;;2.35;100.00
59443;BME280;45247;47.466;19.004;2023-04-07T05:10:56;99651.72;;;2.43;100.00
59443;BME280;45247;47.466;19.004;2023-04-07T05:13:25;99658.41;;;2.52;100.00
59443;BME280;45247;47.466;19.004;2023-04-07T05:15:53;99669.44;;;2.60;100.00
59443;BME280;45247;47.466;19.004;2023-04-07T05:18:21;99678.94;;;2.63;100.00
59443;BME280;45247;47.466;19.004;2023-04-07T05:20:49;99682.19;;;2.69;100.00
59443;BME280;45247;47.466;19.004;2023-04-07T05:23:17;99679.50;;;2.72;100.00
59443;BME280;45247;47.466;19.004;2023-04-07T05:25:45;99675.81;;;2.80;100.00
59443;BME280;45247;47.466;19.004;2023-04-07T05:28:15;99680.78;;;2.87;100.00
59443;BME280;45247;47.466;19.004;2023-04-07T05:30:43;99683.28;;;2.90;100.00
59443;BME280;45247;47.466;19.004;2023-04-07T05:33:11;99682.41;;;2.91;100.00
59443;BME280;45247;47.466;19.004;2023-04-07T05:35:39;99674.28;;;3.00;100.00
59443;BME280;45247;47.466;19.004;2023-04-07T05:38:07;99682.41;;;2.91;100.00
59443;BME280;45247;47.466;19.004;2023-04-07T05:40:36;99679.66;;;2.94;100.00
59443;BME280;45247;47.466;19.004;2023-04-07T05:43:04;99685.84;;;2.92;100.00
59443;BME280;45247;47.466;19.004;2023-04-07T05:45:33;99682.72;;;3.09;100.00
59443;BME280;45247;47.466;19.004;2023-04-07T05:48:02;99690.16;;;3.19;100.00
59443;BME280;45247;47.466;19.004;2023-04-07T05:50:30;99686.50;;;3.25;100.00
59443;BME280;45247;47.466;19.004;2023-04-07T05:52:58;99690.13;;;3.47;100.00
59443;BME280;45247;47.466;19.004;2023-04-07T05:55:26;99680.47;;;3.49;100.00
59443;BME280;45247;47.466;19.004;2023-04-07T05:57:54;99683.28;;;3.43;100.00
59443;BME280;45247;47.466;19.004;2023-04-07T06:00:22;99686.50;;;3.51;100.00
59443;BME280;45247;47.466;19.004;2023-04-07T06:02:52;99688.22;;;3.51;100.00
59443;BME280;45247;47.466;19.004;2023-04-07T06:05:21;99693.72;;;3.43;100.00
59443;BME280;45247;47.466;19.004;2023-04-07T06:07:49;99689.53;;;3.39;100.00
59443;BME280;45247;47.466;19.004;2023-04-07T06:10:17;99690.31;;;3.41;100.00
59443;BME280;45247;47.466;19.004;2023-04-07T06:12:45;99683.47;;;3.37;100.00
59443;BME280;45247;47.466;19.004;2023-04-07T06:15:14;99682.16;;;3.50;100.00
59443;BME280;45247;47.466;19.004;2023-04-07T06:17:42;99689.06;;;3.53;100.00
59443;BME280;45247;47.466;19.004;2023-04-07T06:20:12;99685.78;;;3.46;100.00
59443;BME280;45247;47.466;19.004;2023-04-07T06:22:40;99680.28;;;3.56;100.00
59443;BME280;45247;47.466;19.004;2023-04-07T06:25:09;99679.03;;;3.66;100.00
59443;BME280;45247;47.466;19.004;2023-04-07T06:27:37;99690.38;;;3.65;100.00
59443;BME280;45247;47.466;19.004;2023-04-07T06:30:06;99687.06;;;3.60;100.00
59443;BME280;45247;47.466;19.004;2023-04-07T06:32:35;99687.13;;;3.58;100.00
59443;BME280;45247;47.466;19.004;2023-04-07T06:35:04;99697.50;;;3.60;100.00
59443;BME280;45247;47.466;19.004;2023-04-07T06:37:33;99695.94;;;3.56;100.00
59443;BME280;45247;47.466;19.004;2023-04-07T06:40:02;99696.94;;;3.51;100.00
59443;BME280;45247;47.466;19.004;2023-04-07T06:42:30;99701.28;;;3.51;100.00
59443;BME280;45247;47.466;19.004;2023-04-07T06:44:58;99700.13;;;3.60;100.00
59443;BME280;45247;47.466;19.004;2023-04-07T06:47:26;99701.63;;;3.67;100.00
59443;BME280;45247;47.466;19.004;2023-04-07T06:49:55;99702.41;;;3.44;100.00
59443;BME280;45247;47.466;19.004;2023-04-07T06:52:23;99714.19;;;3.56;100.00
59443;BME280;45247;47.466;19.004;2023-04-07T06:54:53;99702.44;;;3.42;100.00
59443;BME280;45247;47.466;19.004;2023-04-07T06:57:21;99708.31;;;3.49;100.00
59443;BME280;45247;47.466;19.004;2023-04-07T06:59:49;99711.88;;;3.46;100.00
59443;BME280;45247;47.466;19.004;2023-04-07T07:02:17;99718.97;;;3.43;100.00
59443;BME280;45247;47.466;19.004;2023-04-07T07:04:46;99722.69;;;3.36;100.00
59443;BME280;45247;47.466;19.004;2023-04-07T07:07:14;99722.13;;;3.26;100.00
59443;BME280;45247;47.466;19.004;2023-04-07T07:09:42;99729.09;;;3.25;100.00
59443;BME280;45247;47.466;19.004;2023-04-07T07:12:11;99736.72;;;3.04;100.00
59443;BME280;45247;47.466;19.004;2023-04-07T07:14:40;99737.72;;;2.99;100.00
59443;BME280;45247;47.466;19.004;2023-04-07T07:17:09;99745.63;;;2.98;100.00
59443;BME280;45247;47.466;19.004;2023-04-07T07:19:37;99744.06;;;2.92;100.00
59443;BME280;45247;47.466;19.004;2023-04-07T07:22:05;99750.13;;;2.93;100.00
59443;BME280;45247;47.466;19.004;2023-04-07T07:24:33;99755.50;;;2.87;100.00
59443;BME280;45247;47.466;19.004;2023-04-07T07:27:01;99759.06;;;2.84;100.00
59443;BME280;45247;47.466;19.004;2023-04-07T07:29:30;99764.72;;;2.69;100.00
59443;BME280;45247;47.466;19.004;2023-04-07T07:31:59;99766.41;;;2.71;100.00
59443;BME280;45247;47.466;19.004;2023-04-07T07:34:27;99769.66;;;2.78;100.00
59443;BME280;45247;47.466;19.004;2023-04-07T07:36:55;99773.66;;;2.90;100.00
59443;BME280;45247;47.466;19.004;2023-04-07T07:39:23;99773.44;;;2.97;100.00
59443;BME280;45247;47.466;19.004;2023-04-07T07:41:51;99768.00;;;3.05;100.00
59443;BME280;45247;47.466;19.004;2023-04-07T07:44:19;99768.63;;;3.13;100.00
59443;BME280;45247;47.466;19.004;2023-04-07T07:46:50;99767.56;;;3.19;100.00
59443;BME280;45247;47.466;19.004;2023-04-07T07:49:18;99770.16;;;3.19;100.00
59443;BME280;45247;47.466;19.004;2023-04-07T07:51:47;99758.34;;;3.35;100.00
59443;BME280;45247;47.466;19.004;2023-04-07T07:54:15;99771.78;;;3.49;100.00
59443;BME280;45247;47.466;19.004;2023-04-07T07:56:43;99766.09;;;3.65;100.00
59443;BME280;45247;47.466;19.004;2023-04-07T07:59:11;99780.91;;;3.89;100.00
59443;BME280;45247;47.466;19.004;2023-04-07T08:01:41;99782.72;;;4.12;100.00
59443;BME280;45247;47.466;19.004;2023-04-07T08:04:11;99795.13;;;4.31;100.00
59443;BME280;45247;47.466;19.004;2023-04-07T08:06:39;99794.28;;;4.53;100.00
59443;BME280;45247;47.466;19.004;2023-04-07T08:09:08;99793.34;;;4.56;100.00
59443;BME280;45247;47.466;19.004;2023-04-07T08:11:36;99794.63;;;4.44;100.00
59443;BME280;45247;47.466;19.004;2023-04-07T08:14:04;99799.66;;;4.50;100.00
59443;BME280;45247;47.466;19.004;2023-04-07T08:16:35;99801.13;;;4.58;100.00
59443;BME280;45247;47.466;19.004;2023-04-07T08:19:03;99798.22;;;4.42;100.00
59443;BME280;45247;47.466;19.004;2023-04-07T08:21:33;99799.75;;;4.47;100.00
59443;BME280;45247;47.466;19.004;2023-04-07T08:24:01;99799.41;;;4.33;100.00
59443;BME280;45247;47.466;19.004;2023-04-07T08:26:30;99804.34;;;4.41;100.00
59443;BME280;45247;47.466;19.004;2023-04-07T08:28:58;99797.66;;;4.34;100.00
59443;BME280;45247;47.466;19.004;2023-04-07T08:31:27;99794.13;;;4.35;100.00
59443;BME280;45247;47.466;19.004;2023-04-07T08:33:56;99798.41;;;4.37;100.00
59443;BME280;45247;47.466;19.004;2023-04-07T08:36:25;99809.53;;;4.42;100.00
59443;BME280;45247;47.466;19.004;2023-04-07T08:38:55;99809.44;;;4.45;100.00
59443;BME280;45247;47.466;19.004;2023-04-07T08:41:28;99810.88;;;4.29;100.00
59443;BME280;45247;47.466;19.004;2023-04-07T08:43:57;99800.00;;;4.41;100.00
59443;BME280;45247;47.466;19.004;2023-04-07T08:46:25;99810.63;;;4.60;100.00
59443;BME280;45247;47.466;19.004;2023-04-07T08:48:56;99809.91;;;4.80;100.00
59443;BME280;45247;47.466;19.004;2023-04-07T08:51:27;99807.25;;;5.03;100.00
59443;BME280;45247;47.466;19.004;2023-04-07T08:54:03;99809.66;;;5.10;100.00
59443;BME280;45247;47.466;19.004;2023-04-07T08:56:32;99808.72;;;5.11;100.00
59443;BME280;45247;47.466;19.004;2023-04-07T08:59:05;99808.28;;;4.99;100.00
59443;BME280;45247;47.466;19.004;2023-04-07T09:01:34;99802.00;;;5.27;100.00
59443;BME280;45247;47.466;19.004;2023-04-07T09:04:04;99813.19;;;5.52;100.00
59443;BME280;45247;47.466;19.004;2023-04-07T09:06:33;99810.31;;;5.59;100.00
59443;BME280;45247;47.466;19.004;2023-04-07T09:09:04;99806.59;;;5.64;100.00
59443;BME280;45247;47.466;19.004;2023-04-07T09:11:35;99803.53;;;5.75;100.00
59443;BME280;45247;47.466;19.004;2023-04-07T09:14:03;99807.56;;;5.84;100.00
59443;BME280;45247;47.466;19.004;2023-04-07T09:16:31;99800.72;;;6.01;100.00
59443;BME280;45247;47.466;19.004;2023-04-07T09:18:59;99808.31;;;6.08;100.00
59443;BME280;45247;47.466;19.004;2023-04-07T09:21:46;99803.47;;;6.19;100.00
59443;BME280;45247;47.466;19.004;2023-04-07T09:24:24;99808.44;;;6.25;100.00
59443;BME280;45247;47.466;19.004;2023-04-07T09:27:09;99808.84;;;6.16;100.00
59443;BME280;45247;47.466;19.004;2023-04-07T09:29:42;99806.22;;;6.16;100.00
59443;BME280;45247;47.466;19.004;2023-04-07T09:32:11;99809.34;;;6.03;100.00
59443;BME280;45247;47.466;19.004;2023-04-07T09:34:40;99816.03;;;6.11;100.00
59443;BME280;45247;47.466;19.004;2023-04-07T09:37:20;99811.81;;;6.08;100.00
59443;BME280;45247;47.466;19.004;2023-04-07T09:39:51;99809.88;;;6.12;100.00
59443;BME280;45247;47.466;19.004;2023-04-07T09:42:19;99814.41;;;6.08;100.00
59443;BME280;45247;47.466;19.004;2023-04-07T09:44:48;99811.97;;;6.24;100.00
59443;BME280;45247;47.466;19.004;2023-04-07T09:47:16;99810.69;;;6.14;100.00
59443;BME280;45247;47.466;19.004;2023-04-07T09:49:49;99811.91;;;6.05;100.00
59443;BME280;45247;47.466;19.004;2023-04-07T09:52:25;99814.19;;;6.33;100.00
59443;BME280;45247;47.466;19.004;2023-04-07T09:55:12;99816.03;;;6.31;100.00
59443;BME280;45247;47.466;19.004;2023-04-07T09:57:41;99809.25;;;6.46;100.00
59443;BME280;45247;47.466;19.004;2023-04-07T10:00:11;99809.88;;;6.71;100.00
59443;BME280;45247;47.466;19.004;2023-04-07T10:02:39;99807.28;;;6.90;100.00
59443;BME280;45247;47.466;19.004;2023-04-07T10:05:08;99799.91;;;6.98;100.00
59443;BME280;45247;47.466;19.004;2023-04-07T10:07:40;99807.50;;;7.05;100.00
59443;BME280;45247;47.466;19.004;2023-04-07T10:10:13;99813.78;;;7.19;100.00
59443;BME280;45247;47.466;19.004;2023-04-07T10:12:42;99814.94;;;7.14;100.00
59443;BME280;45247;47.466;19.004;2023-04-07T10:15:11;99814.78;;;7.17;100.00
59443;BME280;45247;47.466;19.004;2023-04-07T10:17:45;99813.28;;;7.30;100.00
59443;BME280;45247;47.466;19.004;2023-04-07T10:20:16;99809.06;;;7.09;100.00
59443;BME280;45247;47.466;19.004;2023-04-07T10:22:45;99814.78;;;7.17;100.00
59443;BME280;45247;47.466;19.004;2023-04-07T10:25:18;99815.22;;;7.08;100.00
59443;BME280;45247;47.466;19.004;2023-04-07T10:27:49;99812.53;;;6.90;100.00
59443;BME280;45247;47.466;19.004;2023-04-07T10:30:22;99812.59;;;6.89;100.00
59443;BME280;45247;47.466;19.004;2023-04-07T10:32:52;99811.41;;;6.77;100.00
59443;BME280;45247;47.466;19.004;2023-04-07T10:35:21;99818.75;;;6.88;100.00
59443;BME280;45247;47.466;19.004;2023-04-07T10:38:08;99815.94;;;6.92;100.00
59443;BME280;45247;47.466;19.004;2023-04-07T10:40:39;99815.06;;;6.92;100.00
59443;BME280;45247;47.466;19.004;2023-04-07T10:43:08;99822.19;;;7.09;100.00
59443;BME280;45247;47.466;19.004;2023-04-07T10:45:53;99815.69;;;7.35;100.00
59443;BME280;45247;47.466;19.004;2023-04-07T10:48:26;99805.06;;;7.38;100.00
59443;BME280;45247;47.466;19.004;2023-04-07T10:51:11;99812.59;;;7.63;100.00
59443;BME280;45247;47.466;19.004;2023-04-07T10:57:07;99818.28;;;7.53;100.00
59443;BME280;45247;47.466;19.004;2023-04-07T10:59:42;99820.66;;;7.77;100.00
59443;BME280;45247;47.466;19.004;2023-04-07T11:02:31;99821.09;;;7.68;100.00
59443;BME280;45247;47.466;19.004;2023-04-07T11:05:01;99825.69;;;7.45;100.00
59443;BME280;45247;47.466;19.004;2023-04-07T11:07:43;99822.31;;;7.61;100.00
59443;BME280;45247;47.466;19.004;2023-04-07T11:10:12;99824.09;;;7.60;100.00
59443;BME280;45247;47.466;19.004;2023-04-07T11:12:43;99831.75;;;7.65;100.00
59443;BME280;45247;47.466;19.004;2023-04-07T11:15:19;99824.16;;;7.41;100.00
59443;BME280;45247;47.466;19.004;2023-04-07T11:20:52;99824.28;;;7.38;100.00
59443;BME280;45247;47.466;19.004;2023-04-07T11:23:21;99824.34;;;7.73;100.00
59443;BME280;45247;47.466;19.004;2023-04-07T11:25:53;99823.44;;;7.91;100.00
59443;BME280;45247;47.466;19.004;2023-04-07T11:28:27;99819.91;;;7.92;100.00
59443;BME280;45247;47.466;19.004;2023-04-07T11:30:56;99820.50;;;7.80;100.00
59443;BME280;45247;47.466;19.004;2023-04-07T11:33:27;99825.28;;;7.72;100.00
59443;BME280;45247;47.466;19.004;2023-04-07T11:35:58;99815.41;;;7.77;100.00
59443;BME280;45247;47.466;19.004;2023-04-07T11:38:27;99817.69;;;7.66;100.00
59443;BME280;45247;47.466;19.004;2023-04-07T11:40:56;99818.25;;;7.72;100.00
59443;BME280;45247;47.466;19.004;2023-04-07T11:43:27;99815.84;;;7.68;100.00
59443;BME280;45247;47.466;19.004;2023-04-07T11:46:05;99822.81;;;7.69;100.00
59443;BME280;45247;47.466;19.004;2023-04-07T11:48:35;99816.53;;;7.54;100.00
59443;BME280;45247;47.466;19.004;2023-04-07T11:51:04;99818.59;;;7.47;100.00
59443;BME280;45247;47.466;19.004;2023-04-07T11:53:34;99819.47;;;7.29;100.00
59443;BME280;45247;47.466;19.004;2023-04-07T11:56:05;99823.78;;;7.30;100.00
59443;BME280;45247;47.466;19.004;2023-04-07T11:58:36;99821.78;;;7.35;100.00
59443;BME280;45247;47.466;19.004;2023-04-07T12:01:05;99823.16;;;7.25;100.00
59443;BME280;45247;47.466;19.004;2023-04-07T12:03:36;99822.94;;;7.30;100.00
59443;BME280;45247;47.466;19.004;2023-04-07T12:06:04;99822.16;;;7.27;100.00
59443;BME280;45247;47.466;19.004;2023-04-07T12:08:36;99826.63;;;7.25;100.00
59443;BME280;45247;47.466;19.004;2023-04-07T12:11:05;99836.22;;;7.08;100.00
59443;BME280;45247;47.466;19.004;2023-04-07T12:13:33;99828.41;;;7.06;100.00
59443;BME280;45247;47.466;19.004;2023-04-07T12:16:06;99834.94;;;6.97;100.00
59443;BME280;45247;47.466;19.004;2023-04-07T12:18:34;99815.78;;;6.95;100.00
59443;BME280;45247;47.466;19.004;2023-04-07T12:21:03;99817.91;;;7.06;100.00
59443;BME280;45247;47.466;19.004;2023-04-07T12:23:31;99814.94;;;7.14;100.00
59443;BME280;45247;47.466;19.004;2023-04-07T12:25:59;99821.81;;;6.97;100.00
59443;BME280;45247;47.466;19.004;2023-04-07T12:28:28;99808.69;;;7.16;100.00
59443;BME280;45247;47.466;19.004;2023-04-07T12:30:56;99813.53;;;7.07;100.00
59443;BME280;45247;47.466;19.004;2023-04-07T12:33:25;99809.41;;;7.01;100.00
59443;BME280;45247;47.466;19.004;2023-04-07T12:35:54;99815.22;;;7.08;100.00
59443;BME280;45247;47.466;19.004;2023-04-07T12:38:22;99814.22;;;7.10;100.00
59443;BME280;45247;47.466;19.004;2023-04-07T12:40:50;99815.56;;;7.19;100.00
59443;BME280;45247;47.466;19.004;2023-04-07T12:43:18;99820.03;;;7.17;100.00
59443;BME280;45247;47.466;19.004;2023-04-07T12:45:46;99814.66;;;7.20;100.00
59443;BME280;45247;47.466;19.004;2023-04-07T12:48:15;99809.25;;;7.23;100.00
59443;BME280;45247;47.466;19.004;2023-04-07T12:50:45;99821.31;;;7.27;100.00
59443;BME280;45247;47.466;19.004;2023-04-07T12:53:13;99813.78;;;7.38;100.00
59443;BME280;45247;47.466;19.004;2023-04-07T12:55:42;99825.56;;;7.11;100.00
59443;BME280;45247;47.466;19.004;2023-04-07T12:58:10;99827.97;;;6.96;100.00
59443;BME280;45247;47.466;19.004;2023-04-07T13:00:39;99832.81;;;7.06;100.00
59443;BME280;45247;47.466;19.004;2023-04-07T13:03:07;99823.03;;;6.90;100.00
59443;BME280;45247;47.466;19.004;2023-04-07T13:05:35;99821.31;;;7.08;100.00
59443;BME280;45247;47.466;19.004;2023-04-07T13:08:05;99827.63;;;7.23;100.00
59443;BME280;45247;47.466;19.004;2023-04-07T13:10:33;99824.56;;;7.32;100.00